Time;durP1;ratioP1;P1;durP2;ratioP2;P2;SDS_P1;SDS_P2;PMS_P1;PMS_P2;Temp;Humidity;BMP_temperature;BMP_pressure;BME280_temperature;BME280_humidity;BME280_pressure;Samples;Min_cycle;Max_cycle;Signal;HPM_P1;HPM_P2
2022/10/03 00:01:30;;;;;;;;;;;11.00;99.90;;;9.76;100.00;96348.09;10562703;28;2610;-72
2022/10/03 00:06:33;;;;;;;;;;;11.00;99.90;;;9.58;100.00;96343.88;10566153;28;2662;-72
2022/10/03 00:11:36;;;;;;;;;;;10.80;99.90;;;9.35;100.00;96349.53;10553891;28;2346;-72
2022/10/03 00:16:39;;;;;;;;;;;11.30;99.90;;;9.26;100.00;96356.41;10562898;28;2673;-70
2022/10/03 00:21:43;;;;;;;;;;;10.50;99.90;;;9.18;100.00;96350.44;10564711;28;2716;-72
2022/10/03 00:26:46;;;;;;;;;;;10.40;99.90;;;9.13;100.00;96363.78;10559986;28;2623;-73
2022/10/03 00:31:49;;;;;;;;;;;10.40;99.90;;;9.03;100.00;96369.00;10572553;28;2666;-76
2022/10/03 00:36:52;;;;;;;;;;;10.30;99.90;;;9.02;100.00;96375.44;10560276;28;2437;-72
2022/10/03 00:41:55;;;;;;;;;;;10.30;99.90;;;8.94;100.00;96381.22;10560355;28;2602;-75
2022/10/03 00:47:00;;;;;;;;;;;10.20;99.90;;;8.85;100.00;96386.22;10560701;28;2311;-71
2022/10/03 00:52:03;;;;;;;;;;;10.10;99.90;;;8.76;100.00;96382.31;10545718;28;2793;-71
2022/10/03 00:57:06;;;;;;;;;;;10.00;99.90;;;8.70;100.00;96388.66;10555707;28;2354;-70
2022/10/03 01:02:09;;;;;;;;;;;9.90;99.90;;;8.64;100.00;96387.78;10566662;28;2673;-71
2022/10/03 01:07:12;;;;;;;;;;;9.90;99.90;;;8.62;100.00;96392.59;10547822;28;2705;-71
2022/10/03 01:12:15;;;;;;;;;;;9.90;99.90;;;8.54;100.00;96398.38;10555970;28;2687;-71
2022/10/03 01:17:18;;;;;;;;;;;9.80;99.90;;;8.49;100.00;96395.59;10561580;28;2275;-70
2022/10/03 01:22:21;;;;;;;;;;;9.80;99.90;;;8.46;100.00;96389.91;10553618;28;2557;-71
2022/10/03 01:27:24;;;;;;;;;;;9.70;99.90;;;8.52;100.00;96395.09;10563689;28;2809;-70
2022/10/03 01:32:27;;;;;;;;;;;9.70;99.90;;;8.49;100.00;96392.94;10568920;28;3023;-71
2022/10/03 01:37:30;;;;;;;;;;;9.70;99.90;;;8.45;100.00;96397.13;10551941;28;2609;-71
2022/10/03 01:42:33;;;;;;;;;;;9.70;99.90;;;8.59;100.00;96417.22;10556052;28;2291;-72
2022/10/03 01:47:36;;;;;;;;;;;9.70;99.90;;;8.57;100.00;96421.97;10556260;28;2735;-70
2022/10/03 01:52:39;;;;;;;;;;;9.80;99.90;;;8.57;100.00;96427.34;10562381;28;2986;-70
2022/10/03 01:57:42;;;;;;;;;;;9.70;99.90;;;8.75;100.00;96438.88;10560425;28;2628;-70
2022/10/03 02:02:45;;;;;;;;;;;9.80;99.90;;;8.82;100.00;96442.19;10562582;28;2295;-70
2022/10/03 02:07:48;;;;;;;;;;;9.80;99.90;;;8.77;100.00;96445.59;10559405;28;2591;-71
2022/10/03 02:12:51;;;;;;;;;;;9.90;99.90;;;8.77;100.00;96455.50;10550906;28;3015;-71
2022/10/03 02:17:54;;;;;;;;;;;9.90;99.90;;;8.77;100.00;96455.50;10565326;28;2608;-71
2022/10/03 02:22:56;;;;;;;;;;;9.90;99.90;;;8.69;100.00;96443.34;10560257;28;2642;-71
2022/10/03 02:27:59;;;;;;;;;;;9.90;99.90;;;8.58;100.00;96442.34;10569690;28;2551;-73
2022/10/03 02:33:03;;;;;;;;;;;9.80;99.90;;;8.49;100.00;96445.69;10564714;28;2725;-71
2022/10/03 02:38:06;;;;;;;;;;;9.70;99.90;;;8.37;100.00;96446.59;10545272;28;2344;-72
2022/10/03 02:43:09;;;;;;;;;;;9.60;99.90;;;8.26;100.00;96444.75;10569226;28;2603;-73
2022/10/03 02:48:12;;;;;;;;;;;9.50;99.90;;;8.09;100.00;96447.44;10565394;28;2694;-78
2022/10/03 02:53:33;;;;;;;;;;;9.60;99.90;;;8.07;100.00;96454.88;10558859;28;2303;-72
2022/10/03 02:58:37;;;;;;;;;;;;;;;7.95;100.00;96461.34;10559962;28;2282;-75
2022/10/03 03:03:40;;;;;;;;;;;9.20;99.90;;;7.93;100.00;96472.28;10568141;28;2405;-76
2022/10/03 03:08:43;;;;;;;;;;;9.10;99.90;;;7.85;100.00;96470.00;10565832;28;2671;-74
2022/10/03 03:13:48;;;;;;;;;;;9.10;99.90;;;7.77;100.00;96473.06;10550847;28;2558;-71
2022/10/03 03:18:52;;;;;;;;;;;9.00;99.90;;;7.74;100.00;96469.00;10547540;28;2315;-71
2022/10/03 03:23:55;;;;;;;;;;;9.00;99.90;;;7.73;100.00;96474.59;10562240;28;2605;-71
2022/10/03 03:28:58;;;;;;;;;;;9.10;99.90;;;7.65;100.00;96486.50;10561531;28;2602;-72
2022/10/03 03:34:05;;;;;;;;;;;8.90;99.90;;;7.69;100.00;96497.50;10572650;28;2652;-72
2022/10/03 03:39:09;;;;;;;;;;;8.90;99.90;;;7.64;100.00;96492.91;10566144;28;2556;-71
2022/10/03 03:44:12;;;;;;;;;;;8.90;99.90;;;7.56;100.00;96488.69;10571847;28;2410;-72
2022/10/03 03:49:15;;;;;;;;;;;8.80;99.90;;;7.59;100.00;96493.59;10568319;28;2919;-71
2022/10/03 03:54:18;;;;;;;;;;;8.80;99.90;;;7.60;100.00;96494.41;10569397;28;2610;-72
2022/10/03 03:59:21;;;;;;;;;;;8.80;99.90;;;7.62;100.00;96496.84;10564014;28;2629;-70
2022/10/03 04:04:23;;;;;;;;;;;8.80;99.90;;;7.58;100.00;96496.50;10566675;28;2583;-70
2022/10/03 04:09:26;;;;;;;;;;;8.80;99.90;;;7.57;100.00;96495.69;10551925;28;2633;-73
2022/10/03 04:14:29;;;;;;;;;;;8.80;99.90;;;7.56;100.00;96496.72;10562712;28;2673;-70
2022/10/03 04:19:32;;;;;;;;;;;8.80;99.90;;;7.54;100.00;96498.84;10575391;28;2645;-70
2022/10/03 04:24:36;;;;;;;;;;;8.80;99.90;;;7.53;100.00;96505.25;10554679;28;2601;-71
2022/10/03 04:29:39;;;;;;;;;;;8.80;99.90;;;7.45;100.00;96502.13;10571939;28;2383;-75
2022/10/03 04:34:42;;;;;;;;;;;8.70;99.90;;;7.48;100.00;96504.31;10569933;28;2752;-71
2022/10/03 04:39:44;;;;;;;;;;;8.60;99.90;;;7.41;100.00;96500.97;10565124;28;2628;-76
2022/10/03 04:44:47;;;;;;;;;;;8.60;99.90;;;7.44;100.00;96501.28;10562150;28;2635;-72
2022/10/03 04:49:51;;;;;;;;;;;8.60;99.90;;;7.41;100.00;96491.06;10558554;28;2327;-72
2022/10/03 04:54:54;;;;;;;;;;;8.60;99.90;;;7.33;100.00;96496.78;10553804;28;2609;-71
2022/10/03 04:59:56;;;;;;;;;;;8.60;99.90;;;7.30;100.00;96491.91;10544346;28;2340;-72
2022/10/03 05:04:59;;;;;;;;;;;8.90;99.90;;;7.29;100.00;96499.13;10556269;28;2575;-72
2022/10/03 05:10:03;;;;;;;;;;;8.50;99.90;;;7.26;100.00;96504.94;10567745;28;2549;-74
2022/10/03 05:15:13;;;;;;;;;;;8.50;99.90;;;7.23;100.00;96493.91;10558629;28;2662;-71
2022/10/03 05:20:16;;;;;;;;;;;8.50;99.90;;;7.25;100.00;96500.66;10557379;28;2397;-71
2022/10/03 05:25:19;;;;;;;;;;;8.40;99.90;;;7.31;100.00;96507.72;10548067;28;2693;-70
2022/10/03 05:30:22;;;;;;;;;;;8.90;99.90;;;7.37;100.00;96522.00;10555349;28;2673;-71
2022/10/03 05:35:25;;;;;;;;;;;8.50;99.90;;;7.56;100.00;96515.47;10563087;28;2441;-71
2022/10/03 05:40:28;;;;;;;;;;;8.80;99.90;;;7.58;100.00;96523.28;10551630;28;2586;-71
2022/10/03 05:45:31;;;;;;;;;;;8.70;99.90;;;7.62;100.00;96523.59;10558811;28;2343;-70
2022/10/03 05:50:44;;;;;;;;;;;8.80;99.90;;;7.73;100.00;96530.78;10567627;28;2770;-72
2022/10/03 05:55:47;;;;;;;;;;;;;;;7.86;100.00;96543.91;10570457;28;2524;-69
2022/10/03 06:00:50;;;;;;;;;;;8.90;99.90;;;8.01;100.00;96544.19;10574500;28;2463;-69
2022/10/03 06:05:56;;;;;;;;;;;8.90;99.90;;;8.10;100.00;96545.44;10565630;28;2426;-71
2022/10/03 06:10:59;;;;;;;;;;;9.10;99.90;;;8.22;100.00;96549.97;10575828;28;2437;-71
2022/10/03 06:16:02;;;;;;;;;;;9.20;99.90;;;8.31;100.00;96560.03;10571265;28;2466;-70
2022/10/03 06:21:05;;;;;;;;;;;9.30;99.90;;;8.43;100.00;96578.78;10567418;28;2617;-71
2022/10/03 06:26:07;;;;;;;;;;;9.40;99.90;;;8.43;100.00;96580.63;10576434;28;2280;-77
2022/10/03 06:31:11;;;;;;;;;;;9.50;99.90;;;8.63;100.00;96592.53;10568383;28;2419;-75
2022/10/03 06:36:13;;;;;;;;;;;9.60;99.90;;;8.76;100.00;96594.09;10567844;28;2356;-72
2022/10/03 06:41:16;;;;;;;;;;;9.70;99.90;;;8.86;100.00;96604.19;10574219;28;2447;-71
2022/10/03 06:46:19;;;;;;;;;;;9.80;99.90;;;8.72;100.00;96605.56;10567736;28;2579;-71
2022/10/03 06:51:23;;;;;;;;;;;9.80;99.90;;;9.18;100.00;96607.94;10559514;28;2437;-70
2022/10/03 06:56:32;;;;;;;;;;;10.00;99.90;;;9.33;100.00;96607.34;10575278;28;2393;-71
2022/10/03 07:01:34;;;;;;;;;;;10.20;99.90;;;9.58;100.00;96608.81;10568503;28;2317;-70
2022/10/03 07:06:38;;;;;;;;;;;10.50;99.90;;;9.65;100.00;96618.28;10565496;28;2842;-73
2022/10/03 07:11:42;;;;;;;;;;;10.70;99.90;;;9.61;100.00;96613.69;10563984;28;2573;-71
2022/10/03 07:16:45;;;;;;;;;;;10.70;99.90;;;9.99;100.00;96613.69;10561977;28;2458;-71
2022/10/03 07:21:52;;;;;;;;;;;10.80;99.90;;;10.12;100.00;96604.44;10563251;28;2445;-74
2022/10/03 07:26:55;;;;;;;;;;;11.00;99.90;;;10.20;100.00;96624.66;10560608;28;2490;-73
2022/10/03 07:32:00;;;;;;;;;;;11.20;99.90;;;10.35;100.00;96627.56;10574342;28;2470;-72
2022/10/03 07:42:24;;;;;;;;;;;11.30;99.90;;;10.39;100.00;96638.63;10558630;28;2337;-71
2022/10/03 07:47:27;;;;;;;;;;;11.30;99.90;;;10.33;100.00;96645.00;10557662;28;2387;-71
2022/10/03 07:52:30;;;;;;;;;;;11.40;99.90;;;10.60;100.00;96645.84;10549736;28;2436;-71
2022/10/03 07:57:36;;;;;;;;;;;11.40;99.90;;;10.46;100.00;96645.44;10573950;27;2476;-70
2022/10/03 08:02:39;;;;;;;;;;;11.50;99.90;;;10.43;100.00;96639.75;10551019;28;2471;-71
2022/10/03 08:07:43;;;;;;;;;;;11.50;99.90;;;10.44;100.00;96646.75;10551539;28;2567;-68
2022/10/03 08:12:46;;;;;;;;;;;11.50;99.90;;;10.66;100.00;96644.03;10559905;28;2407;-72
2022/10/03 08:17:49;;;;;;;;;;;11.40;99.90;;;10.42;100.00;96632.75;10565443;28;2418;-69
2022/10/03 08:22:52;;;;;;;;;;;11.40;99.90;;;10.28;100.00;96648.44;10561183;28;1900;-69
2022/10/03 08:27:55;;;;;;;;;;;11.30;99.90;;;10.35;100.00;96653.63;10564434;28;1896;-72
2022/10/03 08:32:58;;;;;;;;;;;11.30;99.90;;;10.59;100.00;96655.00;10557655;28;1975;-72
2022/10/03 08:38:02;;;;;;;;;;;11.30;99.90;;;10.70;100.00;96645.97;10561673;28;1980;-73
2022/10/03 08:43:04;;;;;;;;;;;11.50;99.90;;;11.03;100.00;96653.03;10564624;28;1924;-72
2022/10/03 08:48:09;;;;;;;;;;;11.70;99.90;;;11.66;100.00;96647.91;10560148;28;2004;-72
2022/10/03 08:53:12;;;;;;;;;;;12.20;99.90;;;11.80;100.00;96665.22;10585399;27;1906;-72
2022/10/03 08:58:15;;;;;;;;;;;12.30;99.90;;;11.81;100.00;96663.38;10572560;28;1680;-72
2022/10/03 09:03:18;;;;;;;;;;;12.40;99.90;;;11.28;100.00;96662.41;10567195;28;1977;-73
2022/10/03 09:08:37;;;;;;;;;;;12.30;99.90;;;11.73;100.00;96664.63;10573722;28;2064;-72
2022/10/03 09:13:40;;;;;;;;;;;12.40;99.90;;;11.48;100.00;96656.38;10564395;28;2004;-72
2022/10/03 09:18:43;;;;;;;;;;;12.30;99.90;;;11.24;100.00;96667.47;10564441;28;1902;-71
2022/10/03 09:23:45;;;;;;;;;;;12.20;99.90;;;11.94;100.00;96659.41;10563537;28;1971;-70
2022/10/03 09:28:48;;;;;;;;;;;12.40;99.90;;;12.11;100.00;96665.44;10574216;27;1987;-71
2022/10/03 09:33:54;;;;;;;;;;;12.80;99.90;;;12.30;100.00;96658.53;10559636;28;2044;-72
2022/10/03 09:38:57;;;;;;;;;;;13.00;99.90;;;12.18;100.00;96656.03;10565422;28;2234;-71
2022/10/03 09:44:00;;;;;;;;;;;13.10;99.90;;;12.11;100.00;96660.06;10557076;28;1913;-73
2022/10/03 09:49:03;;;;;;;;;;;12.90;99.90;;;11.94;100.00;96656.72;10567893;28;1996;-71
2022/10/03 09:54:06;;;;;;;;;;;12.90;99.90;;;12.90;100.00;96656.28;10562738;28;1905;-72
2022/10/03 09:59:10;;;;;;;;;;;13.20;99.90;;;13.35;100.00;96646.66;10567858;28;1995;-74
2022/10/03 10:04:13;;;;;;;;;;;13.70;99.90;;;13.31;100.00;96645.59;10570915;28;1889;-73
2022/10/03 10:09:16;;;;;;;;;;;14.00;99.90;;;13.30;100.00;96647.50;10546641;28;2151;-72
2022/10/03 10:14:19;;;;;;;;;;;14.00;99.90;;;13.44;100.00;96640.47;10562875;28;2003;-72
2022/10/03 10:19:22;;;;;;;;;;;14.10;99.90;;;13.15;100.00;96640.16;10565236;28;1985;-69
2022/10/03 10:24:25;;;;;;;;;;;14.00;99.90;;;13.21;100.00;96635.59;10566443;28;2077;-72
2022/10/03 10:29:28;;;;;;;;;;;14.00;99.90;;;13.48;100.00;96619.13;10568394;28;1913;-71
2022/10/03 10:34:31;;;;;;;;;;;14.10;99.90;;;13.51;100.00;96614.00;10567769;28;2068;-72
2022/10/03 10:39:34;;;;;;;;;;;14.30;99.90;;;12.91;100.00;96618.25;10578236;28;1948;-75
2022/10/03 10:44:39;;;;;;;;;;;14.10;99.90;;;12.64;100.00;96615.78;10581266;28;2037;-73
2022/10/03 10:49:44;;;;;;;;;;;13.80;99.90;;;12.74;100.00;96609.59;10557364;28;1953;-72
2022/10/03 10:54:47;;;;;;;;;;;13.60;99.90;;;13.09;100.00;96611.53;10566290;28;2073;-72
2022/10/03 10:59:50;;;;;;;;;;;13.80;99.90;;;13.06;100.00;96622.88;10573264;28;1884;-74
2022/10/03 11:04:54;;;;;;;;;;;13.90;99.90;;;13.62;100.00;96603.19;10558597;28;1929;-73
2022/10/03 11:09:57;;;;;;;;;;;14.20;99.90;;;13.71;100.00;96598.84;10553086;28;1971;-75
2022/10/03 11:15:01;;;;;;;;;;;14.50;99.90;;;14.10;100.00;96599.00;10558140;28;1989;-76
2022/10/03 11:20:04;;;;;;;;;;;14.70;99.90;;;13.47;100.00;96602.09;10567532;28;1995;-72
2022/10/03 11:25:07;;;;;;;;;;;14.60;99.90;;;13.17;100.00;96602.09;10565433;28;2093;-77
2022/10/03 11:30:10;;;;;;;;;;;14.20;99.90;;;13.08;100.00;96598.31;10570440;28;1918;-73
2022/10/03 11:35:13;;;;;;;;;;;14.00;99.90;;;13.21;100.00;96593.22;10562927;28;1932;-74
2022/10/03 11:40:21;;;;;;;;;;;14.00;99.90;;;13.79;100.00;96574.75;10560086;28;2490;-76
2022/10/03 11:45:25;;;;;;;;;;;14.20;99.90;;;13.99;92.62;96586.59;10562854;28;2394;-70
2022/10/03 11:50:29;;;;;;;;;;;14.60;99.90;;;13.78;96.13;96592.06;10545517;28;2430;-71
2022/10/03 11:55:32;;;;;;;;;;;14.70;99.90;;;13.73;96.38;96581.25;10570149;28;2397;-70
2022/10/03 12:00:35;;;;;;;;;;;14.60;99.90;;;13.81;95.53;96579.91;10566618;28;2534;-72
2022/10/03 12:05:38;;;;;;;;;;;14.70;99.90;;;14.10;96.88;96579.28;10562392;28;2396;-71
2022/10/03 12:10:41;;;;;;;;;;;14.70;99.90;;;14.24;96.22;96551.34;10566932;28;2348;-71
2022/10/03 12:15:44;;;;;;;;;;;14.90;99.90;;;14.86;91.91;96562.66;10577934;27;2492;-71
2022/10/03 12:20:47;;;;;;;;;;;15.30;99.90;;;14.40;94.72;96562.09;10545970;28;2865;-71
2022/10/03 12:25:50;;;;;;;;;;;15.40;99.90;;;14.08;99.99;96557.94;10566676;28;2359;-71
2022/10/03 12:30:54;;;;;;;;;;;15.10;99.90;;;13.94;100.00;96560.41;10572985;28;2466;-71
2022/10/03 12:35:56;;;;;;;;;;;15.00;99.90;;;13.85;99.60;96548.53;10566476;27;2486;-73
2022/10/03 12:41:00;;;;;;;;;;;14.80;99.90;;;13.50;97.15;96563.75;10558460;28;2419;-71
2022/10/03 12:46:04;;;;;;;;;;;14.60;99.90;;;13.81;96.80;96552.09;10560647;28;2462;-71
2022/10/03 12:51:07;;;;;;;;;;;14.60;99.90;;;14.49;90.03;96547.75;10557283;28;2449;-70
2022/10/03 12:56:11;;;;;;;;;;;14.90;99.90;;;14.55;83.35;96545.81;10563509;28;2320;-71
2022/10/03 13:01:14;;;;;;;;;;;15.30;99.90;;;14.28;79.70;96535.38;10563102;28;2486;-73
2022/10/03 13:06:17;;;;;;;;;;;15.20;99.90;;;14.27;85.24;96541.88;10555889;27;2480;-71
2022/10/03 13:11:20;;;;;;;;;;;15.20;99.90;;;14.02;84.54;96530.09;10568778;27;2458;-74
2022/10/03 13:16:23;;;;;;;;;;;14.70;99.90;;;14.28;89.68;96524.56;10565974;28;2568;-74
2022/10/03 13:21:33;;;;;;;;;;;14.90;99.90;;;14.65;88.16;96524.13;10561846;28;2473;-75
2022/10/03 13:26:49;;;;;;;;;;;15.30;99.90;;;14.25;100.00;96542.19;10561162;28;2429;-78
2022/10/03 13:31:52;;;;;;;;;;;15.30;99.90;;;14.23;100.00;96533.50;10558923;28;2315;-78
2022/10/03 13:36:55;;;;;;;;;;;15.20;99.90;;;13.82;100.00;96537.47;10542699;28;2421;-76
2022/10/03 13:41:59;;;;;;;;;;;14.90;99.90;;;13.72;100.00;96538.31;10565502;28;2556;-76
2022/10/03 13:47:01;;;;;;;;;;;14.70;99.90;;;13.53;100.00;96536.19;10560570;28;2472;-76
2022/10/03 13:52:06;;;;;;;;;;;14.50;99.90;;;13.30;100.00;96528.69;10561975;28;2353;-75
2022/10/03 13:57:09;;;;;;;;;;;14.40;99.90;;;13.25;100.00;96524.09;10560289;28;2364;-74
2022/10/03 14:02:11;;;;;;;;;;;12.70;99.90;;;13.15;100.00;96512.47;10566763;28;2483;-70
2022/10/03 14:07:15;;;;;;;;;;;14.10;99.90;;;13.09;100.00;96508.94;10533543;28;2496;-72
2022/10/03 14:12:18;;;;;;;;;;;14.10;99.90;;;12.87;100.00;96503.84;10574634;28;2363;-74
2022/10/03 14:17:41;;;;;;;;;;;14.00;99.90;;;12.96;100.00;96504.91;10549593;28;2605;-74
2022/10/03 14:22:44;;;;;;;;;;;14.00;99.90;;;12.82;100.00;96511.94;10576112;28;2512;-75
2022/10/03 14:27:47;;;;;;;;;;;13.90;99.90;;;12.48;100.00;96517.03;10563180;28;2519;-75
2022/10/03 14:32:50;;;;;;;;;;;14.00;99.90;;;12.38;100.00;96515.13;10548772;28;2512;-75
2022/10/03 14:37:53;;;;;;;;;;;13.40;99.90;;;12.35;100.00;96518.38;10567713;28;2778;-74
2022/10/03 14:42:56;;;;;;;;;;;13.40;99.90;;;12.44;100.00;96519.44;10562888;28;2500;-74
2022/10/03 14:48:01;;;;;;;;;;;13.40;99.90;;;12.55;100.00;96514.09;10568682;28;2527;-74
2022/10/03 14:53:05;;;;;;;;;;;13.50;99.90;;;12.47;100.00;96511.88;10562416;28;2412;-74
2022/10/03 14:58:09;;;;;;;;;;;13.50;99.90;;;12.52;100.00;96506.50;10570758;28;2317;-73
2022/10/03 15:03:13;;;;;;;;;;;13.50;99.90;;;12.47;100.00;96506.50;10566265;28;2423;-72
2022/10/03 15:08:16;;;;;;;;;;;13.50;99.90;;;12.33;100.00;96498.94;10561976;28;2416;-75
2022/10/03 15:13:19;;;;;;;;;;;13.50;99.90;;;12.30;100.00;96496.78;10567038;28;2462;-73
2022/10/03 15:18:23;;;;;;;;;;;13.30;99.90;;;12.26;100.00;96494.88;10560307;28;2432;-73
2022/10/03 15:23:26;;;;;;;;;;;13.20;99.90;;;12.20;100.00;96493.25;10540676;28;2829;-74
2022/10/03 15:28:29;;;;;;;;;;;13.20;99.90;;;12.18;100.00;96496.22;10559810;28;2456;-72
2022/10/03 15:33:32;;;;;;;;;;;13.20;99.90;;;12.17;100.00;96500.00;10561641;28;2327;-72
2022/10/03 15:38:34;;;;;;;;;;;15.70;99.90;;;12.07;100.00;96497.25;10564380;28;2577;-72
2022/10/03 15:43:39;;;;;;;;;;;13.10;99.90;;;12.04;100.00;96492.41;10560316;28;2431;-73
2022/10/03 15:48:43;;;;;;;;;;;13.00;99.90;;;11.92;100.00;96491.81;10563461;28;2657;-73
2022/10/03 15:53:49;;;;;;;;;;;12.90;99.90;;;11.72;100.00;96487.94;10566885;28;2523;-73
2022/10/03 15:58:57;;;;;;;;;;;12.90;99.90;;;11.62;100.00;96501.34;10571552;28;2537;-73
2022/10/03 16:04:00;;;;;;;;;;;12.80;99.90;;;11.49;100.00;96497.25;10565485;28;2414;-73
2022/10/03 16:09:02;;;;;;;;;;;12.60;99.90;;;11.30;100.00;96496.88;10567571;28;2517;-73
2022/10/03 16:14:06;;;;;;;;;;;12.50;99.90;;;11.17;100.00;96489.28;10559523;28;2511;-72
2022/10/03 16:19:08;;;;;;;;;;;12.30;99.90;;;11.07;100.00;96489.22;10562095;28;2602;-73
2022/10/03 16:24:11;;;;;;;;;;;12.20;99.90;;;10.92;100.00;96489.91;10549472;28;2390;-72
2022/10/03 16:29:14;;;;;;;;;;;12.00;99.90;;;10.81;100.00;96494.41;10564381;28;2498;-70
2022/10/03 16:34:17;;;;;;;;;;;12.00;99.90;;;10.57;100.00;96501.19;10546512;28;2581;-73
2022/10/03 16:39:21;;;;;;;;;;;11.70;99.90;;;10.51;100.00;96502.22;10569987;28;2544;-72
2022/10/03 16:44:28;;;;;;;;;;;11.60;99.90;;;10.38;100.00;96502.63;10568305;28;2314;-74
2022/10/03 16:54:52;;;;;;;;;;;11.50;99.90;;;10.10;100.00;96507.16;10561274;28;2466;-74
2022/10/03 16:59:55;;;;;;;;;;;11.30;99.90;;;9.89;100.00;96516.03;10564785;28;2363;-79
2022/10/03 17:04:59;;;;;;;;;;;;;;;9.71;100.00;96509.13;10535828;28;2340;-78
2022/10/03 17:10:02;;;;;;;;;;;11.00;99.90;;;9.62;100.00;96514.13;10559557;28;2438;-73
2022/10/03 17:15:04;;;;;;;;;;;10.90;99.90;;;9.51;100.00;96525.78;10558760;28;2513;-74
2022/10/03 17:20:08;;;;;;;;;;;10.80;99.90;;;9.49;100.00;96522.53;10557386;28;2504;-73
2022/10/03 17:25:10;;;;;;;;;;;10.70;99.90;;;9.34;100.00;96533.84;10554622;28;2286;-73
2022/10/03 17:30:19;;;;;;;;;;;10.60;99.90;;;9.23;100.00;96525.94;10549656;28;2451;-73
2022/10/03 17:35:22;;;;;;;;;;;10.50;99.90;;;9.12;100.00;96517.72;10562277;28;2807;-73
2022/10/03 17:40:26;;;;;;;;;;;10.40;99.90;;;9.03;100.00;96529.91;10548801;28;2541;-73
2022/10/03 17:45:30;;;;;;;;;;;10.20;99.90;;;8.97;100.00;96522.03;10542600;28;2280;-73
2022/10/03 17:50:33;;;;;;;;;;;10.20;99.90;;;8.96;100.00;96518.53;10556874;28;2561;-71
2022/10/03 17:55:36;;;;;;;;;;;10.10;99.90;;;8.87;100.00;96526.19;10566236;28;2317;-71
2022/10/03 18:00:40;;;;;;;;;;;10.00;99.90;;;8.88;100.00;96535.03;10562494;28;2531;-72
2022/10/03 18:05:43;;;;;;;;;;;10.00;99.90;;;8.97;100.00;96547.00;10577402;28;2497;-75
2022/10/03 18:10:48;;;;;;;;;;;10.10;99.90;;;9.00;100.00;96537.63;10571187;28;2680;-73
2022/10/03 18:15:50;;;;;;;;;;;10.20;99.90;;;8.86;100.00;96537.16;10560066;28;2384;-74
2022/10/03 18:20:57;;;;;;;;;;;9.90;99.90;;;8.69;100.00;96530.97;10563540;28;2503;-76
2022/10/03 18:26:03;;;;;;;;;;;9.90;99.90;;;8.64;100.00;96529.81;10568334;28;2341;-75
2022/10/03 18:31:22;;;;;;;;;;;9.80;99.90;;;8.42;100.00;96534.28;10566040;28;2691;-75
2022/10/03 18:36:25;;;;;;;;;;;9.70;99.90;;;8.28;100.00;96541.78;10557500;28;2676;-73
2022/10/03 18:41:30;;;;;;;;;;;9.50;99.90;;;8.09;100.00;96543.84;10566414;28;2404;-72
2022/10/03 18:46:33;;;;;;;;;;;9.40;99.90;;;7.98;100.00;96550.03;10558530;28;2369;-71
2022/10/03 18:51:36;;;;;;;;;;;9.20;99.90;;;7.98;100.00;96550.03;10564623;28;2598;-72
2022/10/03 18:56:40;;;;;;;;;;;9.10;99.90;;;7.90;100.00;96541.56;10554566;28;2613;-72
2022/10/03 19:01:43;;;;;;;;;;;9.10;99.90;;;7.88;100.00;96544.47;10556960;28;2277;-71
2022/10/03 19:06:48;;;;;;;;;;;9.10;99.90;;;7.77;100.00;96545.34;10563044;28;2316;-73
2022/10/03 19:11:55;;;;;;;;;;;9.00;99.90;;;7.63;100.00;96546.63;10556016;28;2274;-74
2022/10/03 19:16:57;;;;;;;;;;;8.90;99.90;;;7.63;100.00;96549.28;10560539;28;2277;-73
2022/10/03 19:22:00;;;;;;;;;;;8.80;99.90;;;7.53;100.00;96547.25;10569721;28;2345;-73
2022/10/03 19:27:04;;;;;;;;;;;8.80;99.90;;;7.58;100.00;96545.50;10559484;28;2579;-73
2022/10/03 19:32:08;;;;;;;;;;;8.90;99.90;;;7.47;100.00;96537.47;10560574;28;2326;-73
2022/10/03 19:37:11;;;;;;;;;;;8.90;99.90;;;7.38;100.00;96537.03;10563211;28;2361;-74
2022/10/03 19:42:16;;;;;;;;;;;8.80;99.90;;;7.30;100.00;96535.50;10564393;28;2523;-73
2022/10/03 19:47:19;;;;;;;;;;;8.80;99.90;;;7.26;100.00;96536.22;10556730;28;2480;-72
2022/10/03 19:52:22;;;;;;;;;;;8.80;99.90;;;7.18;100.00;96533.88;10568498;28;2399;-73
2022/10/03 19:57:26;;;;;;;;;;;8.70;99.90;;;7.19;100.00;96540.84;10544283;28;2329;-73
2022/10/03 20:02:29;;;;;;;;;;;8.60;99.90;;;7.17;100.00;96537.59;10559439;28;2357;-73
2022/10/03 20:07:32;;;;;;;;;;;8.60;99.90;;;7.08;100.00;96549.72;10552079;28;2092;-74
2022/10/03 20:12:34;;;;;;;;;;;8.50;99.90;;;7.02;100.00;96546.09;10559265;28;2358;-70
2022/10/03 20:17:43;;;;;;;;;;;8.50;99.90;;;7.07;100.00;96537.41;10551263;28;2325;-72
2022/10/03 20:22:46;;;;;;;;;;;8.50;99.90;;;7.00;100.00;96548.22;10551655;28;2240;-70
2022/10/03 20:27:49;;;;;;;;;;;8.40;99.90;;;6.96;100.00;96547.84;10559073;28;2379;-70
2022/10/03 20:32:52;;;;;;;;;;;8.40;99.90;;;6.89;100.00;96539.13;10565632;28;2356;-70
2022/10/03 20:37:55;;;;;;;;;;;8.40;99.90;;;6.91;100.00;96539.69;10562954;28;2346;-71
2022/10/03 20:42:58;;;;;;;;;;;8.10;99.90;;;6.84;100.00;96535.50;10568310;28;2335;-73
2022/10/03 20:48:01;;;;;;;;;;;8.00;99.90;;;6.74;100.00;96536.91;10561934;28;2645;-74
2022/10/03 20:53:04;;;;;;;;;;;8.00;99.90;;;6.72;100.00;96543.50;10566020;28;2352;-74
2022/10/03 20:58:07;;;;;;;;;;;7.90;99.90;;;6.67;100.00;96538.03;10564285;28;2336;-70
2022/10/03 21:03:10;;;;;;;;;;;7.80;99.90;;;6.55;100.00;96535.34;10569530;28;2291;-70
2022/10/03 21:08:16;;;;;;;;;;;7.80;99.90;;;6.56;100.00;96536.19;10555166;28;2354;-70
2022/10/03 21:13:19;;;;;;;;;;;7.70;99.90;;;6.55;100.00;96527.31;10564419;28;2440;-72
2022/10/03 21:18:21;;;;;;;;;;;7.70;99.90;;;6.43;100.00;96532.66;10562817;28;2323;-71
2022/10/03 21:23:24;;;;;;;;;;;7.70;99.90;;;6.47;100.00;96528.47;10562329;28;2439;-71
2022/10/03 21:28:27;;;;;;;;;;;7.70;99.90;;;6.39;100.00;96526.16;10551021;28;2255;-71
2022/10/03 21:33:30;;;;;;;;;;;7.60;99.90;;;6.29;100.00;96520.53;10561991;28;2376;-74
2022/10/03 21:38:34;;;;;;;;;;;7.50;99.90;;;6.32;100.00;96521.94;10564171;28;2322;-71
2022/10/03 21:43:37;;;;;;;;;;;7.50;99.90;;;6.32;100.00;96514.75;10543908;28;2433;-70
2022/10/03 21:48:40;;;;;;;;;;;7.50;99.90;;;6.29;100.00;96519.72;10563494;28;2313;-70
2022/10/03 21:53:43;;;;;;;;;;;7.40;99.90;;;6.30;100.00;96527.53;10555342;28;2354;-70
2022/10/03 21:58:46;;;;;;;;;;;7.40;99.90;;;6.31;100.00;96513.13;10554148;28;2351;-70
2022/10/03 22:03:50;;;;;;;;;;;7.50;99.90;;;6.22;100.00;96503.81;10546650;28;2391;-70
2022/10/03 22:08:53;;;;;;;;;;;7.40;99.90;;;6.16;100.00;96489.50;10556770;28;2362;-70
2022/10/03 22:13:55;;;;;;;;;;;7.40;99.90;;;6.16;100.00;96488.69;10566531;28;2374;-71
2022/10/03 22:18:58;;;;;;;;;;;7.40;99.90;;;6.14;100.00;96480.09;10554805;28;2322;-71
2022/10/03 22:24:01;;;;;;;;;;;7.20;99.90;;;6.15;100.00;96461.19;10563002;28;2434;-72
2022/10/03 22:29:04;;;;;;;;;;;7.20;99.90;;;6.18;100.00;96463.41;10557307;28;2338;-70
2022/10/03 22:34:07;;;;;;;;;;;7.30;99.90;;;6.09;100.00;96466.63;10564521;28;2291;-70
2022/10/03 22:39:10;;;;;;;;;;;7.20;99.90;;;6.14;100.00;96458.75;10565913;28;2389;-70
2022/10/03 22:44:13;;;;;;;;;;;7.20;99.90;;;6.02;100.00;96445.38;10565286;28;2338;-70
2022/10/03 22:49:19;;;;;;;;;;;7.20;99.90;;;5.96;100.00;96444.44;10567767;28;2406;-70
2022/10/03 22:54:22;;;;;;;;;;;7.20;99.90;;;5.95;100.00;96444.66;10566050;28;2352;-70
2022/10/03 22:59:25;;;;;;;;;;;7.00;99.90;;;5.95;100.00;96445.47;10565845;28;2428;-70
2022/10/03 23:04:27;;;;;;;;;;;7.10;99.90;;;5.91;100.00;96449.63;10559930;28;2423;-69
2022/10/03 23:09:30;;;;;;;;;;;7.20;99.90;;;5.91;100.00;96454.16;10565354;28;2493;-69
2022/10/03 23:14:33;;;;;;;;;;;;;;;5.84;100.00;96435.53;10550573;28;2395;-70
2022/10/03 23:19:36;;;;;;;;;;;7.00;99.90;;;5.77;100.00;96442.00;10555815;28;2410;-69
2022/10/03 23:24:39;;;;;;;;;;;7.00;99.90;;;5.70;100.00;96437.59;10567149;28;2339;-70
2022/10/03 23:29:42;;;;;;;;;;;6.80;99.90;;;5.59;100.00;96445.53;10571725;28;2319;-69